sensor_id;sensor_type;location;lat;lon;timestamp;P1;durP1;ratioP1;P2;durP2;ratioP2
58360;SDS011;44164;44.954;10.068;2023-02-28T00:00:27;3.42;;;2.47;;
58360;SDS011;44164;44.954;10.068;2023-02-28T00:02:53;3.50;;;2.47;;
58360;SDS011;44164;44.954;10.068;2023-02-28T00:05:21;3.80;;;2.28;;
58360;SDS011;44164;44.954;10.068;2023-02-28T00:07:48;3.92;;;2.38;;
58360;SDS011;44164;44.954;10.068;2023-02-28T00:10:16;4.03;;;2.30;;
58360;SDS011;44164;44.954;10.068;2023-02-28T00:12:47;4.60;;;2.25;;
58360;SDS011;44164;44.954;10.068;2023-02-28T00:15:13;3.47;;;2.28;;
58360;SDS011;44164;44.954;10.068;2023-02-28T00:17:40;4.95;;;2.25;;
58360;SDS011;44164;44.954;10.068;2023-02-28T00:20:06;3.33;;;2.08;;
58360;SDS011;44164;44.954;10.068;2023-02-28T00:22:34;3.65;;;2.13;;
58360;SDS011;44164;44.954;10.068;2023-02-28T00:25:00;4.32;;;2.38;;
58360;SDS011;44164;44.954;10.068;2023-02-28T00:27:26;4.63;;;2.17;;
58360;SDS011;44164;44.954;10.068;2023-02-28T00:29:52;4.45;;;2.05;;
58360;SDS011;44164;44.954;10.068;2023-02-28T00:32:19;4.18;;;2.97;;
58360;SDS011;44164;44.954;10.068;2023-02-28T00:34:45;3.10;;;1.92;;
58360;SDS011;44164;44.954;10.068;2023-02-28T00:37:12;3.85;;;2.25;;
58360;SDS011;44164;44.954;10.068;2023-02-28T00:39:38;3.22;;;2.45;;
58360;SDS011;44164;44.954;10.068;2023-02-28T00:42:04;4.40;;;2.30;;
58360;SDS011;44164;44.954;10.068;2023-02-28T00:44:31;4.45;;;2.75;;
58360;SDS011;44164;44.954;10.068;2023-02-28T00:46:58;3.78;;;2.38;;
58360;SDS011;44164;44.954;10.068;2023-02-28T00:49:25;4.68;;;2.05;;
58360;SDS011;44164;44.954;10.068;2023-02-28T00:51:52;3.40;;;2.22;;
58360;SDS011;44164;44.954;10.068;2023-02-28T00:54:20;4.97;;;3.03;;
58360;SDS011;44164;44.954;10.068;2023-02-28T00:56:47;3.97;;;2.38;;
58360;SDS011;44164;44.954;10.068;2023-02-28T00:59:13;3.03;;;2.22;;
58360;SDS011;44164;44.954;10.068;2023-02-28T01:01:41;3.88;;;2.75;;
58360;SDS011;44164;44.954;10.068;2023-02-28T01:04:07;3.58;;;2.40;;
58360;SDS011;44164;44.954;10.068;2023-02-28T01:06:35;3.40;;;2.00;;
58360;SDS011;44164;44.954;10.068;2023-02-28T01:09:02;3.38;;;2.22;;
58360;SDS011;44164;44.954;10.068;2023-02-28T01:11:29;3.28;;;1.70;;
58360;SDS011;44164;44.954;10.068;2023-02-28T01:13:56;4.47;;;2.50;;
58360;SDS011;44164;44.954;10.068;2023-02-28T01:16:22;4.00;;;2.10;;
58360;SDS011;44164;44.954;10.068;2023-02-28T01:18:49;3.58;;;2.38;;
58360;SDS011;44164;44.954;10.068;2023-02-28T01:21:17;4.00;;;2.42;;
58360;SDS011;44164;44.954;10.068;2023-02-28T01:23:45;3.72;;;2.47;;
58360;SDS011;44164;44.954;10.068;2023-02-28T01:26:13;3.75;;;2.28;;
58360;SDS011;44164;44.954;10.068;2023-02-28T01:28:40;3.80;;;1.90;;
58360;SDS011;44164;44.954;10.068;2023-02-28T01:31:07;4.95;;;2.50;;
58360;SDS011;44164;44.954;10.068;2023-02-28T01:33:34;5.20;;;2.08;;
58360;SDS011;44164;44.954;10.068;2023-02-28T01:36:01;4.10;;;2.25;;
58360;SDS011;44164;44.954;10.068;2023-02-28T01:38:29;3.30;;;2.00;;
58360;SDS011;44164;44.954;10.068;2023-02-28T01:40:55;3.20;;;2.30;;
58360;SDS011;44164;44.954;10.068;2023-02-28T01:43:26;4.78;;;2.83;;
58360;SDS011;44164;44.954;10.068;2023-02-28T01:45:55;3.60;;;2.33;;
58360;SDS011;44164;44.954;10.068;2023-02-28T01:48:26;4.53;;;2.40;;
58360;SDS011;44164;44.954;10.068;2023-02-28T01:50:54;2.88;;;1.90;;
58360;SDS011;44164;44.954;10.068;2023-02-28T01:53:32;3.33;;;2.22;;
58360;SDS011;44164;44.954;10.068;2023-02-28T01:56:03;4.78;;;2.40;;
58360;SDS011;44164;44.954;10.068;2023-02-28T01:58:32;4.00;;;2.03;;
58360;SDS011;44164;44.954;10.068;2023-02-28T02:00:58;3.30;;;1.95;;
58360;SDS011;44164;44.954;10.068;2023-02-28T02:03:25;4.10;;;1.97;;
58360;SDS011;44164;44.954;10.068;2023-02-28T02:05:52;3.08;;;1.80;;
58360;SDS011;44164;44.954;10.068;2023-02-28T02:08:23;5.97;;;2.17;;
58360;SDS011;44164;44.954;10.068;2023-02-28T02:18:36;3.92;;;2.30;;
58360;SDS011;44164;44.954;10.068;2023-02-28T02:29:37;4.28;;;2.90;;
58360;SDS011;44164;44.954;10.068;2023-02-28T02:35:03;3.55;;;2.25;;
58360;SDS011;44164;44.954;10.068;2023-02-28T02:37:53;4.38;;;2.08;;
58360;SDS011;44164;44.954;10.068;2023-02-28T02:40:38;2.53;;;1.90;;
58360;SDS011;44164;44.954;10.068;2023-02-28T02:43:29;3.60;;;2.13;;
58360;SDS011;44164;44.954;10.068;2023-02-28T02:45:59;3.22;;;2.25;;
58360;SDS011;44164;44.954;10.068;2023-02-28T02:48:48;2.95;;;2.17;;
58360;SDS011;44164;44.954;10.068;2023-02-28T02:51:16;3.22;;;2.38;;
58360;SDS011;44164;44.954;10.068;2023-02-28T02:53:46;3.67;;;2.28;;
58360;SDS011;44164;44.954;10.068;2023-02-28T02:56:16;3.72;;;2.55;;
58360;SDS011;44164;44.954;10.068;2023-02-28T02:58:45;3.30;;;2.20;;
58360;SDS011;44164;44.954;10.068;2023-02-28T03:01:18;3.67;;;2.13;;
58360;SDS011;44164;44.954;10.068;2023-02-28T03:03:54;3.55;;;2.33;;
58360;SDS011;44164;44.954;10.068;2023-02-28T03:06:25;3.65;;;2.20;;
58360;SDS011;44164;44.954;10.068;2023-02-28T03:08:51;3.85;;;2.40;;
58360;SDS011;44164;44.954;10.068;2023-02-28T03:11:18;3.72;;;2.22;;
58360;SDS011;44164;44.954;10.068;2023-02-28T03:16:45;4.07;;;2.15;;
58360;SDS011;44164;44.954;10.068;2023-02-28T03:27:29;3.22;;;2.40;;
58360;SDS011;44164;44.954;10.068;2023-02-28T03:30:01;3.55;;;2.65;;
58360;SDS011;44164;44.954;10.068;2023-02-28T03:32:33;3.63;;;2.33;;
58360;SDS011;44164;44.954;10.068;2023-02-28T03:35:16;4.90;;;2.40;;
58360;SDS011;44164;44.954;10.068;2023-02-28T03:37:49;4.35;;;2.47;;
58360;SDS011;44164;44.954;10.068;2023-02-28T03:40:19;3.45;;;1.98;;
58360;SDS011;44164;44.954;10.068;2023-02-28T03:42:48;3.58;;;2.08;;
58360;SDS011;44164;44.954;10.068;2023-02-28T03:45:17;3.97;;;2.17;;
58360;SDS011;44164;44.954;10.068;2023-02-28T03:47:46;4.20;;;2.53;;
58360;SDS011;44164;44.954;10.068;2023-02-28T03:50:18;4.38;;;2.20;;
58360;SDS011;44164;44.954;10.068;2023-02-28T03:52:56;2.58;;;1.95;;
58360;SDS011;44164;44.954;10.068;2023-02-28T03:55:28;3.83;;;2.08;;
58360;SDS011;44164;44.954;10.068;2023-02-28T04:00:50;3.47;;;2.30;;
58360;SDS011;44164;44.954;10.068;2023-02-28T04:03:22;4.88;;;2.30;;
58360;SDS011;44164;44.954;10.068;2023-02-28T04:05:52;4.93;;;2.30;;
58360;SDS011;44164;44.954;10.068;2023-02-28T04:08:20;4.65;;;2.30;;
58360;SDS011;44164;44.954;10.068;2023-02-28T04:10:48;3.70;;;2.22;;
58360;SDS011;44164;44.954;10.068;2023-02-28T04:13:19;5.90;;;2.20;;
58360;SDS011;44164;44.954;10.068;2023-02-28T04:15:45;5.57;;;2.38;;
58360;SDS011;44164;44.954;10.068;2023-02-28T04:18:11;7.03;;;2.65;;
58360;SDS011;44164;44.954;10.068;2023-02-28T04:20:37;4.13;;;2.10;;
58360;SDS011;44164;44.954;10.068;2023-02-28T04:23:03;4.20;;;2.35;;
58360;SDS011;44164;44.954;10.068;2023-02-28T04:25:29;6.20;;;2.10;;
58360;SDS011;44164;44.954;10.068;2023-02-28T04:27:55;4.43;;;2.47;;
58360;SDS011;44164;44.954;10.068;2023-02-28T04:30:22;3.72;;;2.22;;
58360;SDS011;44164;44.954;10.068;2023-02-28T04:32:48;4.60;;;2.50;;
58360;SDS011;44164;44.954;10.068;2023-02-28T04:35:14;2.80;;;1.75;;
58360;SDS011;44164;44.954;10.068;2023-02-28T04:37:40;2.78;;;1.80;;
58360;SDS011;44164;44.954;10.068;2023-02-28T04:40:06;4.07;;;2.40;;
58360;SDS011;44164;44.954;10.068;2023-02-28T04:42:33;3.17;;;2.22;;
58360;SDS011;44164;44.954;10.068;2023-02-28T04:47:30;3.13;;;1.98;;
58360;SDS011;44164;44.954;10.068;2023-02-28T04:49:56;5.40;;;2.10;;
58360;SDS011;44164;44.954;10.068;2023-02-28T04:52:23;3.88;;;2.53;;
58360;SDS011;44164;44.954;10.068;2023-02-28T04:54:49;4.30;;;2.22;;
58360;SDS011;44164;44.954;10.068;2023-02-28T04:57:15;3.92;;;2.28;;
58360;SDS011;44164;44.954;10.068;2023-02-28T04:59:41;3.13;;;1.85;;
58360;SDS011;44164;44.954;10.068;2023-02-28T05:02:07;5.38;;;1.88;;
58360;SDS011;44164;44.954;10.068;2023-02-28T05:04:34;3.58;;;2.05;;
58360;SDS011;44164;44.954;10.068;2023-02-28T05:07:00;4.88;;;2.30;;
58360;SDS011;44164;44.954;10.068;2023-02-28T05:09:27;3.35;;;2.42;;
58360;SDS011;44164;44.954;10.068;2023-02-28T05:11:54;2.80;;;1.95;;
58360;SDS011;44164;44.954;10.068;2023-02-28T05:14:20;3.33;;;2.10;;
58360;SDS011;44164;44.954;10.068;2023-02-28T05:16:46;3.83;;;2.28;;
58360;SDS011;44164;44.954;10.068;2023-02-28T05:19:12;6.03;;;2.22;;
58360;SDS011;44164;44.954;10.068;2023-02-28T05:21:40;4.53;;;2.50;;
58360;SDS011;44164;44.954;10.068;2023-02-28T05:24:09;2.58;;;1.80;;
58360;SDS011;44164;44.954;10.068;2023-02-28T05:26:40;2.95;;;2.03;;
58360;SDS011;44164;44.954;10.068;2023-02-28T05:29:07;3.10;;;2.17;;
58360;SDS011;44164;44.954;10.068;2023-02-28T05:31:34;3.78;;;2.13;;
58360;SDS011;44164;44.954;10.068;2023-02-28T05:34:01;2.63;;;1.75;;
58360;SDS011;44164;44.954;10.068;2023-02-28T05:38:55;3.30;;;2.08;;
58360;SDS011;44164;44.954;10.068;2023-02-28T05:41:21;3.25;;;2.08;;
58360;SDS011;44164;44.954;10.068;2023-02-28T05:43:48;3.35;;;2.17;;
58360;SDS011;44164;44.954;10.068;2023-02-28T05:46:14;3.17;;;1.90;;
58360;SDS011;44164;44.954;10.068;2023-02-28T05:48:41;2.53;;;1.75;;
58360;SDS011;44164;44.954;10.068;2023-02-28T05:51:08;4.30;;;2.17;;
58360;SDS011;44164;44.954;10.068;2023-02-28T05:53:35;3.00;;;2.00;;
58360;SDS011;44164;44.954;10.068;2023-02-28T05:56:01;3.00;;;2.08;;
58360;SDS011;44164;44.954;10.068;2023-02-28T05:58:27;4.03;;;2.03;;
58360;SDS011;44164;44.954;10.068;2023-02-28T06:00:56;3.03;;;1.92;;
58360;SDS011;44164;44.954;10.068;2023-02-28T06:03:24;2.88;;;2.03;;
58360;SDS011;44164;44.954;10.068;2023-02-28T06:05:51;2.72;;;1.70;;
58360;SDS011;44164;44.954;10.068;2023-02-28T06:08:17;3.63;;;2.13;;
58360;SDS011;44164;44.954;10.068;2023-02-28T06:10:44;4.38;;;2.13;;
58360;SDS011;44164;44.954;10.068;2023-02-28T06:13:10;2.10;;;1.58;;
58360;SDS011;44164;44.954;10.068;2023-02-28T06:15:38;3.05;;;1.70;;
58360;SDS011;44164;44.954;10.068;2023-02-28T06:18:04;4.93;;;2.40;;
58360;SDS011;44164;44.954;10.068;2023-02-28T06:20:30;2.60;;;1.50;;
58360;SDS011;44164;44.954;10.068;2023-02-28T06:22:57;3.42;;;1.95;;
58360;SDS011;44164;44.954;10.068;2023-02-28T06:25:27;3.63;;;1.92;;
58360;SDS011;44164;44.954;10.068;2023-02-28T06:27:53;2.95;;;1.98;;
58360;SDS011;44164;44.954;10.068;2023-02-28T06:30:20;3.20;;;2.00;;
58360;SDS011;44164;44.954;10.068;2023-02-28T06:32:52;3.63;;;1.88;;
58360;SDS011;44164;44.954;10.068;2023-02-28T06:35:19;3.47;;;2.08;;
58360;SDS011;44164;44.954;10.068;2023-02-28T06:37:45;4.15;;;2.00;;
58360;SDS011;44164;44.954;10.068;2023-02-28T06:40:12;3.28;;;1.95;;
58360;SDS011;44164;44.954;10.068;2023-02-28T06:42:39;5.68;;;1.95;;
58360;SDS011;44164;44.954;10.068;2023-02-28T06:45:05;3.95;;;2.05;;
58360;SDS011;44164;44.954;10.068;2023-02-28T06:47:35;3.22;;;2.15;;
58360;SDS011;44164;44.954;10.068;2023-02-28T06:50:02;2.78;;;1.98;;
58360;SDS011;44164;44.954;10.068;2023-02-28T06:52:29;3.10;;;2.08;;
58360;SDS011;44164;44.954;10.068;2023-02-28T06:54:55;6.90;;;3.05;;
58360;SDS011;44164;44.954;10.068;2023-02-28T06:57:31;9.50;;;3.13;;
58360;SDS011;44164;44.954;10.068;2023-02-28T06:59:59;12.35;;;3.35;;
58360;SDS011;44164;44.954;10.068;2023-02-28T07:02:26;11.60;;;3.28;;
58360;SDS011;44164;44.954;10.068;2023-02-28T07:04:52;7.60;;;3.33;;
58360;SDS011;44164;44.954;10.068;2023-02-28T07:07:18;7.25;;;3.28;;
58360;SDS011;44164;44.954;10.068;2023-02-28T07:09:44;8.07;;;2.90;;
58360;SDS011;44164;44.954;10.068;2023-02-28T07:12:11;4.75;;;2.97;;
58360;SDS011;44164;44.954;10.068;2023-02-28T07:14:37;7.55;;;3.03;;
58360;SDS011;44164;44.954;10.068;2023-02-28T07:17:03;5.55;;;2.80;;
58360;SDS011;44164;44.954;10.068;2023-02-28T07:19:29;4.93;;;2.58;;
58360;SDS011;44164;44.954;10.068;2023-02-28T07:21:55;10.02;;;2.95;;
58360;SDS011;44164;44.954;10.068;2023-02-28T07:24:21;6.65;;;2.75;;
58360;SDS011;44164;44.954;10.068;2023-02-28T07:26:51;5.07;;;2.53;;
58360;SDS011;44164;44.954;10.068;2023-02-28T07:29:17;5.03;;;2.75;;
58360;SDS011;44164;44.954;10.068;2023-02-28T07:31:43;6.85;;;2.55;;
58360;SDS011;44164;44.954;10.068;2023-02-28T07:34:09;4.55;;;3.03;;
58360;SDS011;44164;44.954;10.068;2023-02-28T07:36:35;6.50;;;2.58;;
58360;SDS011;44164;44.954;10.068;2023-02-28T07:39:01;5.47;;;2.50;;
58360;SDS011;44164;44.954;10.068;2023-02-28T07:41:28;4.78;;;2.83;;
58360;SDS011;44164;44.954;10.068;2023-02-28T07:43:55;5.28;;;2.35;;
58360;SDS011;44164;44.954;10.068;2023-02-28T07:46:23;6.13;;;2.90;;
58360;SDS011;44164;44.954;10.068;2023-02-28T07:48:49;4.50;;;2.70;;
58360;SDS011;44164;44.954;10.068;2023-02-28T07:51:15;5.13;;;2.80;;
58360;SDS011;44164;44.954;10.068;2023-02-28T07:53:42;10.18;;;2.88;;
58360;SDS011;44164;44.954;10.068;2023-02-28T07:56:08;5.07;;;2.45;;
58360;SDS011;44164;44.954;10.068;2023-02-28T07:58:34;4.05;;;2.42;;
58360;SDS011;44164;44.954;10.068;2023-02-28T08:01:07;5.53;;;2.88;;
58360;SDS011;44164;44.954;10.068;2023-02-28T08:03:34;7.38;;;2.60;;
58360;SDS011;44164;44.954;10.068;2023-02-28T08:06:02;4.07;;;2.75;;
58360;SDS011;44164;44.954;10.068;2023-02-28T08:08:31;6.22;;;2.75;;
58360;SDS011;44164;44.954;10.068;2023-02-28T08:10:59;5.47;;;2.50;;
58360;SDS011;44164;44.954;10.068;2023-02-28T08:13:28;3.95;;;2.60;;
58360;SDS011;44164;44.954;10.068;2023-02-28T08:15:55;3.30;;;2.30;;
58360;SDS011;44164;44.954;10.068;2023-02-28T08:18:22;4.57;;;2.50;;
58360;SDS011;44164;44.954;10.068;2023-02-28T08:20:48;4.55;;;2.63;;
58360;SDS011;44164;44.954;10.068;2023-02-28T08:23:15;4.82;;;2.97;;
58360;SDS011;44164;44.954;10.068;2023-02-28T08:25:41;5.43;;;2.45;;
58360;SDS011;44164;44.954;10.068;2023-02-28T08:28:07;3.90;;;2.67;;
58360;SDS011;44164;44.954;10.068;2023-02-28T08:30:33;3.85;;;2.60;;
58360;SDS011;44164;44.954;10.068;2023-02-28T08:32:59;4.88;;;3.00;;
58360;SDS011;44164;44.954;10.068;2023-02-28T08:35:27;4.82;;;2.03;;
58360;SDS011;44164;44.954;10.068;2023-02-28T08:37:53;3.38;;;2.50;;
58360;SDS011;44164;44.954;10.068;2023-02-28T08:40:19;5.50;;;2.45;;
58360;SDS011;44164;44.954;10.068;2023-02-28T08:42:45;4.03;;;2.90;;
58360;SDS011;44164;44.954;10.068;2023-02-28T08:45:12;3.25;;;2.28;;
58360;SDS011;44164;44.954;10.068;2023-02-28T08:47:39;4.20;;;2.30;;
58360;SDS011;44164;44.954;10.068;2023-02-28T08:50:05;3.90;;;2.33;;
58360;SDS011;44164;44.954;10.068;2023-02-28T08:52:33;4.18;;;2.55;;
58360;SDS011;44164;44.954;10.068;2023-02-28T08:54:59;3.97;;;2.40;;
58360;SDS011;44164;44.954;10.068;2023-02-28T08:57:25;4.93;;;2.60;;
58360;SDS011;44164;44.954;10.068;2023-02-28T08:59:54;3.42;;;2.28;;
58360;SDS011;44164;44.954;10.068;2023-02-28T09:02:20;4.07;;;2.47;;
58360;SDS011;44164;44.954;10.068;2023-02-28T09:04:46;4.25;;;2.55;;
58360;SDS011;44164;44.954;10.068;2023-02-28T09:07:12;4.07;;;2.85;;
58360;SDS011;44164;44.954;10.068;2023-02-28T09:09:38;5.28;;;2.70;;
58360;SDS011;44164;44.954;10.068;2023-02-28T09:12:20;3.90;;;2.42;;
58360;SDS011;44164;44.954;10.068;2023-02-28T09:17:13;3.53;;;2.40;;
58360;SDS011;44164;44.954;10.068;2023-02-28T09:19:41;4.20;;;2.20;;
58360;SDS011;44164;44.954;10.068;2023-02-28T09:22:08;4.78;;;2.45;;
58360;SDS011;44164;44.954;10.068;2023-02-28T09:24:36;3.50;;;2.20;;
58360;SDS011;44164;44.954;10.068;2023-02-28T09:27:03;3.53;;;2.20;;
58360;SDS011;44164;44.954;10.068;2023-02-28T09:29:29;4.93;;;2.20;;
58360;SDS011;44164;44.954;10.068;2023-02-28T09:31:56;4.38;;;2.50;;
58360;SDS011;44164;44.954;10.068;2023-02-28T09:36:50;4.57;;;2.80;;
58360;SDS011;44164;44.954;10.068;2023-02-28T09:39:23;4.07;;;2.25;;
58360;SDS011;44164;44.954;10.068;2023-02-28T09:41:51;4.97;;;2.78;;
58360;SDS011;44164;44.954;10.068;2023-02-28T09:46:51;3.63;;;2.10;;
58360;SDS011;44164;44.954;10.068;2023-02-28T09:49:22;3.35;;;2.40;;
58360;SDS011;44164;44.954;10.068;2023-02-28T09:52:00;5.07;;;2.35;;
58360;SDS011;44164;44.954;10.068;2023-02-28T09:54:29;4.18;;;2.33;;
58360;SDS011;44164;44.954;10.068;2023-02-28T09:59:56;5.05;;;2.25;;
58360;SDS011;44164;44.954;10.068;2023-02-28T10:05:30;3.50;;;2.30;;
58360;SDS011;44164;44.954;10.068;2023-02-28T10:08:09;3.78;;;2.30;;
58360;SDS011;44164;44.954;10.068;2023-02-28T10:10:43;5.05;;;2.60;;
58360;SDS011;44164;44.954;10.068;2023-02-28T10:16:25;3.35;;;2.35;;
58360;SDS011;44164;44.954;10.068;2023-02-28T10:21:41;3.22;;;2.30;;
58360;SDS011;44164;44.954;10.068;2023-02-28T10:24:16;4.22;;;2.63;;
58360;SDS011;44164;44.954;10.068;2023-02-28T10:26:49;4.28;;;2.80;;
58360;SDS011;44164;44.954;10.068;2023-02-28T10:29:18;3.80;;;2.22;;
58360;SDS011;44164;44.954;10.068;2023-02-28T10:31:44;4.65;;;2.67;;
58360;SDS011;44164;44.954;10.068;2023-02-28T10:34:11;3.60;;;2.30;;
58360;SDS011;44164;44.954;10.068;2023-02-28T10:36:38;3.55;;;2.30;;
58360;SDS011;44164;44.954;10.068;2023-02-28T10:42:04;5.63;;;2.58;;
58360;SDS011;44164;44.954;10.068;2023-02-28T10:44:30;4.13;;;2.35;;
58360;SDS011;44164;44.954;10.068;2023-02-28T10:46:57;3.78;;;2.28;;
58360;SDS011;44164;44.954;10.068;2023-02-28T10:49:24;3.63;;;2.30;;
58360;SDS011;44164;44.954;10.068;2023-02-28T10:51:57;4.03;;;2.60;;
58360;SDS011;44164;44.954;10.068;2023-02-28T10:54:34;3.65;;;2.22;;
58360;SDS011;44164;44.954;10.068;2023-02-28T10:57:08;4.18;;;2.15;;
58360;SDS011;44164;44.954;10.068;2023-02-28T10:59:44;5.10;;;2.72;;
58360;SDS011;44164;44.954;10.068;2023-02-28T11:08:12;3.33;;;2.53;;
58360;SDS011;44164;44.954;10.068;2023-02-28T11:10:44;5.13;;;2.55;;
58360;SDS011;44164;44.954;10.068;2023-02-28T11:13:19;6.47;;;2.95;;
58360;SDS011;44164;44.954;10.068;2023-02-28T11:16:06;4.32;;;2.97;;
58360;SDS011;44164;44.954;10.068;2023-02-28T11:21:21;4.00;;;2.75;;
58360;SDS011;44164;44.954;10.068;2023-02-28T11:23:49;4.60;;;2.53;;
58360;SDS011;44164;44.954;10.068;2023-02-28T11:26:36;3.90;;;2.78;;
58360;SDS011;44164;44.954;10.068;2023-02-28T11:29:08;6.00;;;2.60;;
58360;SDS011;44164;44.954;10.068;2023-02-28T11:31:37;3.80;;;2.85;;
58360;SDS011;44164;44.954;10.068;2023-02-28T11:34:07;4.32;;;2.75;;
58360;SDS011;44164;44.954;10.068;2023-02-28T11:36:49;4.13;;;2.78;;
58360;SDS011;44164;44.954;10.068;2023-02-28T11:39:15;4.78;;;2.70;;
58360;SDS011;44164;44.954;10.068;2023-02-28T11:55:43;3.92;;;2.65;;
58360;SDS011;44164;44.954;10.068;2023-02-28T12:11:59;3.92;;;2.60;;
58360;SDS011;44164;44.954;10.068;2023-02-28T12:22:45;6.97;;;3.25;;
58360;SDS011;44164;44.954;10.068;2023-02-28T12:27:49;5.03;;;2.47;;
58360;SDS011;44164;44.954;10.068;2023-02-28T12:30:17;4.85;;;2.70;;
58360;SDS011;44164;44.954;10.068;2023-02-28T12:32:48;3.63;;;2.42;;
58360;SDS011;44164;44.954;10.068;2023-02-28T12:35:21;4.78;;;2.67;;
58360;SDS011;44164;44.954;10.068;2023-02-28T12:37:50;4.82;;;2.70;;
58360;SDS011;44164;44.954;10.068;2023-02-28T12:40:21;3.47;;;2.60;;
58360;SDS011;44164;44.954;10.068;2023-02-28T12:47:45;3.53;;;2.50;;
58360;SDS011;44164;44.954;10.068;2023-02-28T12:50:13;3.80;;;2.58;;
58360;SDS011;44164;44.954;10.068;2023-02-28T12:55:29;4.00;;;2.60;;
58360;SDS011;44164;44.954;10.068;2023-02-28T13:00:25;4.55;;;2.60;;
58360;SDS011;44164;44.954;10.068;2023-02-28T13:11:29;3.95;;;2.35;;
58360;SDS011;44164;44.954;10.068;2023-02-28T13:13:58;4.80;;;2.70;;
58360;SDS011;44164;44.954;10.068;2023-02-28T13:16:25;4.78;;;3.10;;
58360;SDS011;44164;44.954;10.068;2023-02-28T13:18:51;5.18;;;2.80;;
58360;SDS011;44164;44.954;10.068;2023-02-28T13:21:41;4.38;;;2.70;;
58360;SDS011;44164;44.954;10.068;2023-02-28T13:24:08;5.25;;;2.78;;
58360;SDS011;44164;44.954;10.068;2023-02-28T13:29:07;4.22;;;2.75;;
58360;SDS011;44164;44.954;10.068;2023-02-28T13:34:35;7.00;;;2.97;;
58360;SDS011;44164;44.954;10.068;2023-02-28T13:39:56;5.07;;;2.92;;
58360;SDS011;44164;44.954;10.068;2023-02-28T13:42:49;5.15;;;3.45;;
58360;SDS011;44164;44.954;10.068;2023-02-28T13:47:58;5.10;;;2.55;;
58360;SDS011;44164;44.954;10.068;2023-02-28T13:55:48;4.07;;;2.42;;
58360;SDS011;44164;44.954;10.068;2023-02-28T13:58:56;4.65;;;2.60;;
58360;SDS011;44164;44.954;10.068;2023-02-28T14:01:34;4.78;;;2.72;;
58360;SDS011;44164;44.954;10.068;2023-02-28T14:07:05;4.25;;;2.67;;
58360;SDS011;44164;44.954;10.068;2023-02-28T14:15:28;3.92;;;2.50;;
58360;SDS011;44164;44.954;10.068;2023-02-28T14:17:52;5.05;;;3.20;;
58360;SDS011;44164;44.954;10.068;2023-02-28T14:20:19;5.37;;;2.57;;
58360;SDS011;44164;44.954;10.068;2023-02-28T14:28:17;4.07;;;2.70;;
58360;SDS011;44164;44.954;10.068;2023-02-28T14:31:06;4.00;;;2.53;;
58360;SDS011;44164;44.954;10.068;2023-02-28T14:33:40;3.65;;;2.65;;
58360;SDS011;44164;44.954;10.068;2023-02-28T14:36:23;4.07;;;2.53;;
58360;SDS011;44164;44.954;10.068;2023-02-28T14:38:59;4.82;;;2.88;;
58360;SDS011;44164;44.954;10.068;2023-02-28T14:41:35;4.53;;;2.63;;
58360;SDS011;44164;44.954;10.068;2023-02-28T14:46:52;6.68;;;3.13;;
58360;SDS011;44164;44.954;10.068;2023-02-28T14:49:28;4.40;;;2.70;;
58360;SDS011;44164;44.954;10.068;2023-02-28T14:52:02;6.18;;;2.50;;
58360;SDS011;44164;44.954;10.068;2023-02-28T14:54:29;4.28;;;3.13;;
58360;SDS011;44164;44.954;10.068;2023-02-28T14:56:55;4.25;;;3.03;;
58360;SDS011;44164;44.954;10.068;2023-02-28T14:59:26;3.53;;;2.72;;
58360;SDS011;44164;44.954;10.068;2023-02-28T15:02:12;6.05;;;2.67;;
58360;SDS011;44164;44.954;10.068;2023-02-28T15:04:41;5.25;;;2.30;;
58360;SDS011;44164;44.954;10.068;2023-02-28T15:07:13;5.68;;;2.97;;
58360;SDS011;44164;44.954;10.068;2023-02-28T15:09:40;3.50;;;2.15;;
58360;SDS011;44164;44.954;10.068;2023-02-28T15:12:06;5.97;;;2.95;;
58360;SDS011;44164;44.954;10.068;2023-02-28T15:14:33;12.50;;;4.95;;
58360;SDS011;44164;44.954;10.068;2023-02-28T15:17:02;7.75;;;4.05;;
58360;SDS011;44164;44.954;10.068;2023-02-28T15:19:34;7.38;;;4.07;;
58360;SDS011;44164;44.954;10.068;2023-02-28T15:22:12;9.30;;;4.03;;
58360;SDS011;44164;44.954;10.068;2023-02-28T15:24:43;7.80;;;4.18;;
58360;SDS011;44164;44.954;10.068;2023-02-28T15:27:13;7.18;;;4.25;;
58360;SDS011;44164;44.954;10.068;2023-02-28T15:29:50;8.25;;;4.15;;
58360;SDS011;44164;44.954;10.068;2023-02-28T15:32:23;7.35;;;4.15;;
58360;SDS011;44164;44.954;10.068;2023-02-28T15:34:55;5.50;;;3.47;;
58360;SDS011;44164;44.954;10.068;2023-02-28T15:37:45;9.93;;;4.07;;
58360;SDS011;44164;44.954;10.068;2023-02-28T15:40:15;9.75;;;4.63;;
58360;SDS011;44164;44.954;10.068;2023-02-28T15:42:43;9.20;;;3.80;;
58360;SDS011;44164;44.954;10.068;2023-02-28T15:45:32;6.63;;;3.97;;
58360;SDS011;44164;44.954;10.068;2023-02-28T15:48:05;6.60;;;4.25;;
58360;SDS011;44164;44.954;10.068;2023-02-28T15:52:57;7.85;;;3.83;;
58360;SDS011;44164;44.954;10.068;2023-02-28T15:55:25;9.27;;;3.97;;
58360;SDS011;44164;44.954;10.068;2023-02-28T15:57:55;6.72;;;3.78;;
58360;SDS011;44164;44.954;10.068;2023-02-28T16:00:25;7.80;;;3.53;;
58360;SDS011;44164;44.954;10.068;2023-02-28T16:02:52;5.65;;;3.38;;
58360;SDS011;44164;44.954;10.068;2023-02-28T16:05:21;6.82;;;4.00;;
58360;SDS011;44164;44.954;10.068;2023-02-28T16:07:57;6.28;;;3.25;;
58360;SDS011;44164;44.954;10.068;2023-02-28T16:10:25;7.90;;;3.15;;
58360;SDS011;44164;44.954;10.068;2023-02-28T16:12:54;7.10;;;3.17;;
58360;SDS011;44164;44.954;10.068;2023-02-28T16:15:22;6.68;;;3.15;;
58360;SDS011;44164;44.954;10.068;2023-02-28T16:17:52;6.60;;;3.42;;
58360;SDS011;44164;44.954;10.068;2023-02-28T16:20:24;4.33;;;2.93;;
58360;SDS011;44164;44.954;10.068;2023-02-28T16:22:52;10.20;;;3.22;;
58360;SDS011;44164;44.954;10.068;2023-02-28T16:25:19;5.07;;;3.15;;
58360;SDS011;44164;44.954;10.068;2023-02-28T16:27:49;6.68;;;3.00;;
58360;SDS011;44164;44.954;10.068;2023-02-28T16:30:18;9.98;;;3.38;;
58360;SDS011;44164;44.954;10.068;2023-02-28T16:32:46;6.75;;;3.40;;
58360;SDS011;44164;44.954;10.068;2023-02-28T16:35:12;8.95;;;3.45;;
58360;SDS011;44164;44.954;10.068;2023-02-28T16:37:39;5.47;;;3.05;;
58360;SDS011;44164;44.954;10.068;2023-02-28T16:40:08;5.53;;;3.13;;
58360;SDS011;44164;44.954;10.068;2023-02-28T16:42:39;7.60;;;3.83;;
58360;SDS011;44164;44.954;10.068;2023-02-28T16:45:06;6.90;;;3.50;;
58360;SDS011;44164;44.954;10.068;2023-02-28T16:47:40;5.15;;;3.45;;
58360;SDS011;44164;44.954;10.068;2023-02-28T16:50:13;6.28;;;3.47;;
58360;SDS011;44164;44.954;10.068;2023-02-28T16:52:41;5.70;;;3.80;;
58360;SDS011;44164;44.954;10.068;2023-02-28T16:55:07;5.80;;;3.40;;
58360;SDS011;44164;44.954;10.068;2023-02-28T16:57:34;6.18;;;3.47;;
58360;SDS011;44164;44.954;10.068;2023-02-28T17:00:00;6.13;;;3.53;;
58360;SDS011;44164;44.954;10.068;2023-02-28T17:02:26;5.50;;;3.05;;
58360;SDS011;44164;44.954;10.068;2023-02-28T17:04:53;4.70;;;3.00;;
58360;SDS011;44164;44.954;10.068;2023-02-28T17:07:19;4.65;;;3.10;;
58360;SDS011;44164;44.954;10.068;2023-02-28T17:09:45;5.63;;;3.85;;
58360;SDS011;44164;44.954;10.068;2023-02-28T17:12:11;6.50;;;3.20;;
58360;SDS011;44164;44.954;10.068;2023-02-28T17:14:38;5.47;;;2.97;;
58360;SDS011;44164;44.954;10.068;2023-02-28T17:17:04;9.38;;;3.47;;
58360;SDS011;44164;44.954;10.068;2023-02-28T17:19:31;4.47;;;3.28;;
58360;SDS011;44164;44.954;10.068;2023-02-28T17:21:59;7.18;;;3.63;;
58360;SDS011;44164;44.954;10.068;2023-02-28T17:24:26;4.88;;;3.92;;
58360;SDS011;44164;44.954;10.068;2023-02-28T17:26:52;4.38;;;3.15;;